createdAt,value
2022-10-05T00:01:00.074Z,76.12
2022-10-05T00:03:41.374Z,76.47
2022-10-05T00:06:10.963Z,76.31
2022-10-05T00:08:37.747Z,76.39
2022-10-05T00:11:07.989Z,76.33
2022-10-05T00:13:35.146Z,76.66
2022-10-05T00:16:10.588Z,76.78
2022-10-05T00:18:37.399Z,76.21
2022-10-05T00:21:17.225Z,76.43
2022-10-05T00:23:43.835Z,76.27
2022-10-05T00:26:16.261Z,76.78
2022-10-05T00:28:42.836Z,76.99
2022-10-05T00:31:19.615Z,76.51
2022-10-05T00:33:46.788Z,76.76
2022-10-05T00:36:14.260Z,76.65
2022-10-05T00:38:41.943Z,76.15
2022-10-05T00:41:26.360Z,76.57
2022-10-05T00:44:14.691Z,76.45
2022-10-05T00:47:02.497Z,76.25
2022-10-05T00:49:51.842Z,76.14
2022-10-05T00:52:31.322Z,76.97
2022-10-05T00:55:18.911Z,76.56
2022-10-05T00:58:10.144Z,76.51
2022-10-05T01:00:47.292Z,76.50
2022-10-05T01:03:25.910Z,77.01
2022-10-05T01:06:00.957Z,76.96
2022-10-05T01:08:43.316Z,77.01
2022-10-05T01:11:41.051Z,77.02
2022-10-05T01:14:27.666Z,77.28
2022-10-05T01:17:03.795Z,77.40
2022-10-05T01:19:51.273Z,77.52
2022-10-05T01:22:49.582Z,77.12
2022-10-05T01:25:30.132Z,77.58
2022-10-05T01:28:03.990Z,77.50
2022-10-05T01:30:41.945Z,77.65
2022-10-05T01:33:36.249Z,77.99
2022-10-05T01:36:08.967Z,77.66
2022-10-05T01:38:42.790Z,78.08
2022-10-05T01:41:19.641Z,77.94
2022-10-05T01:43:47.960Z,77.81
2022-10-05T01:46:28.500Z,77.79
2022-10-05T01:49:17.738Z,77.72
2022-10-05T01:52:27.580Z,77.90
2022-10-05T01:55:12.299Z,78.23
2022-10-05T01:58:03.072Z,78.44
2022-10-05T02:00:36.164Z,78.56
2022-10-05T02:03:19.066Z,78.63
2022-10-05T02:05:54.272Z,78.27
2022-10-05T02:08:36.844Z,78.16
2022-10-05T02:11:12.990Z,78.43
2022-10-05T02:13:55.987Z,78.47
2022-10-05T02:16:34.633Z,78.08
2022-10-05T02:19:14.535Z,78.33
2022-10-05T02:21:44.779Z,78.59
2022-10-05T02:24:17.476Z,78.21
2022-10-05T02:26:45.532Z,78.05
2022-10-05T02:29:15.948Z,78.08
2022-10-05T02:31:55.114Z,78.33
2022-10-05T02:34:49.847Z,78.42
2022-10-05T02:37:34.748Z,78.33
2022-10-05T02:40:29.020Z,78.43
2022-10-05T02:43:06.127Z,79.00
2022-10-05T02:45:46.230Z,78.80
2022-10-05T02:48:31.485Z,78.98
2022-10-05T02:51:21.243Z,78.86
2022-10-05T02:54:00.241Z,78.55
2022-10-05T02:56:44.105Z,78.73
2022-10-05T02:59:28.861Z,78.94
2022-10-05T03:02:12.350Z,78.42
2022-10-05T03:04:45.811Z,78.50
2022-10-05T03:07:15.504Z,78.93
2022-10-05T03:10:00.893Z,78.75
2022-10-05T03:12:45.573Z,78.42
2022-10-05T03:15:23.994Z,78.07
2022-10-05T03:17:56.265Z,78.36
2022-10-05T03:21:01.771Z,78.49
2022-10-05T03:23:44.894Z,77.83
2022-10-05T03:26:39.187Z,78.08
2022-10-05T03:29:11.374Z,78.23
2022-10-05T03:31:49.897Z,77.77
2022-10-05T03:34:29.352Z,77.82
2022-10-05T03:37:09.262Z,77.91
2022-10-05T03:39:51.338Z,78.00
2022-10-05T03:42:36.551Z,77.92
2022-10-05T03:45:09.568Z,77.61
2022-10-05T03:48:00.447Z,77.67
2022-10-05T03:50:43.245Z,78.00
2022-10-05T03:53:22.785Z,77.79
2022-10-05T03:55:59.645Z,77.88
2022-10-05T03:58:42.130Z,78.07
2022-10-05T04:01:22.267Z,77.83
2022-10-05T04:06:24.446Z,77.03
2022-10-05T04:08:59.183Z,77.54
2022-10-05T04:11:39.322Z,77.35
2022-10-05T04:14:24.299Z,77.45
2022-10-05T04:17:06.789Z,77.25
2022-10-05T04:20:00.809Z,77.80
2022-10-05T04:22:42.766Z,77.58
2022-10-05T04:25:19.928Z,77.56
2022-10-05T04:28:13.684Z,77.38
2022-10-05T04:30:44.741Z,76.86
2022-10-05T04:33:13.669Z,77.03
2022-10-05T04:35:58.715Z,76.78
2022-10-05T04:38:54.575Z,77.14
2022-10-05T04:41:43.142Z,77.40
2022-10-05T04:44:28.228Z,76.81
2022-10-05T04:47:10.625Z,77.08
2022-10-05T04:49:43.120Z,76.66
2022-10-05T04:52:28.228Z,77.21
2022-10-05T04:55:15.863Z,76.62
2022-10-05T04:57:48.323Z,76.89
2022-10-05T05:00:43.897Z,77.00
2022-10-05T05:03:13.467Z,76.71
2022-10-05T05:06:18.190Z,77.09
2022-10-05T05:09:00.513Z,77.16
2022-10-05T05:11:28.815Z,76.98
2022-10-05T05:14:29.740Z,76.87
2022-10-05T05:17:17.940Z,76.46
2022-10-05T05:19:56.662Z,76.12
2022-10-05T05:22:44.211Z,75.99
2022-10-05T05:25:36.858Z,75.82
2022-10-05T05:28:15.714Z,75.90
2022-10-05T05:30:48.821Z,75.29
2022-10-05T05:33:20.459Z,75.23
2022-10-05T05:35:49.931Z,74.95
2022-10-05T05:38:38.860Z,75.01
2022-10-05T05:41:38.898Z,74.86
2022-10-05T05:44:14.496Z,74.46
2022-10-05T05:47:03.563Z,74.41
2022-10-05T05:49:52.829Z,74.53
2022-10-05T05:52:23.860Z,74.40
2022-10-05T05:54:58.462Z,74.50
2022-10-05T05:57:34.686Z,74.11
2022-10-05T06:00:21.520Z,73.75
2022-10-05T06:02:56.958Z,74.07
2022-10-05T06:05:48.173Z,74.46
2022-10-05T06:08:22.441Z,73.94
2022-10-05T06:11:05.227Z,74.19
2022-10-05T06:13:38.443Z,73.96
2022-10-05T06:16:14.915Z,74.37
2022-10-05T06:18:46.731Z,75.05
2022-10-05T06:21:30.062Z,74.42
2022-10-05T06:24:05.892Z,75.45
2022-10-05T06:27:00.982Z,74.93
2022-10-05T06:29:38.882Z,75.06
2022-10-05T06:32:25.567Z,75.12
2022-10-05T06:35:16.425Z,75.21
2022-10-05T06:37:50.184Z,75.35
2022-10-05T06:40:22.793Z,75.72
2022-10-05T06:43:37.015Z,75.59
2022-10-05T06:46:24.775Z,75.35
2022-10-05T06:49:00.222Z,75.75
2022-10-05T06:51:48.408Z,76.12
2022-10-05T06:54:48.659Z,76.07
2022-10-05T06:57:45.921Z,75.93
2022-10-05T07:00:20.122Z,76.08
2022-10-05T07:02:58.720Z,76.00
2022-10-05T07:05:47.054Z,76.82
2022-10-05T07:08:44.298Z,76.85
2022-10-05T07:11:31.867Z,76.46
2022-10-05T07:14:11.618Z,76.43
2022-10-05T07:16:41.734Z,76.29
2022-10-05T07:19:22.598Z,76.58
2022-10-05T07:22:04.817Z,76.81
2022-10-05T07:24:41.735Z,76.74
2022-10-05T07:27:10.936Z,76.94
2022-10-05T07:29:54.023Z,76.93
2022-10-05T07:32:46.001Z,76.66
2022-10-05T07:35:55.879Z,76.90
2022-10-05T07:38:32.956Z,76.93
2022-10-05T07:41:06.706Z,76.97
2022-10-05T07:44:13.411Z,76.74
2022-10-05T07:46:43.661Z,76.61
2022-10-05T07:49:33.257Z,76.25
2022-10-05T07:52:11.257Z,76.47
2022-10-05T07:54:53.170Z,76.25
2022-10-05T07:57:31.573Z,76.45
2022-10-05T08:00:15.625Z,76.33
2022-10-05T08:02:51.092Z,76.35
2022-10-05T08:05:26.684Z,76.80
2022-10-05T08:08:13.262Z,76.21
2022-10-05T08:10:51.384Z,76.96
2022-10-05T08:13:30.423Z,76.97
2022-10-05T08:16:03.736Z,76.74
2022-10-05T08:19:02.503Z,76.83
2022-10-05T08:21:36.092Z,76.95
2022-10-05T08:24:10.819Z,76.65
2022-10-05T08:26:59.771Z,76.99
2022-10-05T08:29:29.709Z,76.73
2022-10-05T08:32:01.179Z,76.15
2022-10-05T08:34:40.268Z,76.58
2022-10-05T08:37:14.855Z,76.38
2022-10-05T08:40:03.983Z,76.80
2022-10-05T08:42:44.379Z,76.41
2022-10-05T08:45:37.691Z,76.61
2022-10-05T08:48:26.173Z,76.82
2022-10-05T08:50:58.348Z,75.83
2022-10-05T08:53:33.816Z,76.69
2022-10-05T08:56:37.924Z,76.08
2022-10-05T08:59:16.677Z,76.29
2022-10-05T09:02:18.646Z,75.84
2022-10-05T09:05:00.231Z,75.33
2022-10-05T09:07:42.673Z,75.90
2022-10-05T09:10:46.151Z,75.50
2022-10-05T09:13:36.712Z,75.47
2022-10-05T09:16:21.242Z,75.01
2022-10-05T09:19:02.681Z,75.21
2022-10-05T09:21:58.888Z,74.56
2022-10-05T09:24:52.012Z,74.50
2022-10-05T09:27:26.444Z,74.38
2022-10-05T09:30:05.387Z,74.26
2022-10-05T09:32:40.959Z,73.02
2022-10-05T09:35:31.454Z,73.61
2022-10-05T09:38:12.123Z,73.08
2022-10-05T09:41:06.921Z,73.48
2022-10-05T09:43:40.099Z,72.23
2022-10-05T09:46:39.999Z,72.66
2022-10-05T09:49:22.718Z,71.76
2022-10-05T09:52:21.583Z,71.65
2022-10-05T09:54:47.892Z,71.74
2022-10-05T09:57:55.647Z,71.63
2022-10-05T10:00:34.637Z,71.85
2022-10-05T10:03:25.505Z,71.35
2022-10-05T10:06:29.712Z,71.07
2022-10-05T10:09:21.243Z,71.39
2022-10-05T10:12:21.007Z,71.48
2022-10-05T10:15:11.799Z,72.71
2022-10-05T10:17:50.303Z,71.69
2022-10-05T10:20:44.620Z,70.99
2022-10-05T10:24:02.229Z,71.97
2022-10-05T10:26:45.062Z,72.26
2022-10-05T10:29:14.670Z,72.71
2022-10-05T10:31:49.258Z,72.50
2022-10-05T10:34:48.533Z,72.72
2022-10-05T10:37:39.309Z,73.04
2022-10-05T10:40:44.234Z,72.89
2022-10-05T10:43:27.533Z,72.84
2022-10-05T10:45:57.378Z,72.93
2022-10-05T10:48:29.836Z,72.97
2022-10-05T10:51:02.154Z,73.42
2022-10-05T10:53:28.409Z,73.14
2022-10-05T10:56:28.967Z,73.79
2022-10-05T10:58:55.302Z,73.71
2022-10-05T11:02:04.201Z,73.35
2022-10-05T11:04:53.626Z,73.64
2022-10-05T11:07:40.627Z,73.74
2022-10-05T11:10:22.300Z,73.57
2022-10-05T11:13:16.295Z,73.79
2022-10-05T11:15:55.776Z,73.39
2022-10-05T11:19:00.631Z,74.06
2022-10-05T11:21:36.785Z,74.05
2022-10-05T11:24:43.320Z,73.88
2022-10-05T11:27:18.985Z,73.80
2022-10-05T11:30:03.339Z,73.63
2022-10-05T11:32:47.762Z,73.76
2022-10-05T11:35:32.503Z,73.86
2022-10-05T11:38:36.779Z,73.29
2022-10-05T11:41:41.207Z,73.58
2022-10-05T11:44:42.929Z,73.04
2022-10-05T11:47:27.470Z,72.49
2022-10-05T11:50:05.358Z,72.68
2022-10-05T11:52:43.679Z,72.63
2022-10-05T11:55:23.328Z,72.97
2022-10-05T11:57:52.753Z,72.20
2022-10-05T12:00:22.237Z,72.26
2022-10-05T12:03:02.863Z,71.78
2022-10-05T12:05:56.684Z,71.07
2022-10-05T12:08:36.399Z,70.79
2022-10-05T12:11:16.896Z,70.92
2022-10-05T12:14:21.626Z,70.41
2022-10-05T12:17:14.320Z,70.77
2022-10-05T12:19:48.003Z,71.39
2022-10-05T12:22:32.621Z,70.86
2022-10-05T12:25:21.586Z,70.47
2022-10-05T12:27:52.299Z,69.51
2022-10-05T12:31:03.120Z,69.90
2022-10-05T12:33:54.113Z,69.59
2022-10-05T12:36:46.295Z,70.14
2022-10-05T12:39:43.321Z,68.89
2022-10-05T12:42:20.023Z,68.13
2022-10-05T12:45:07.922Z,68.63
2022-10-05T12:47:39.150Z,68.99
2022-10-05T12:50:13.286Z,68.24
2022-10-05T12:52:52.312Z,68.46
2022-10-05T12:55:28.036Z,67.52
2022-10-05T12:58:18.470Z,68.50
2022-10-05T13:00:57.259Z,68.62
2022-10-05T13:03:55.848Z,69.27
2022-10-05T13:06:27.321Z,69.36
2022-10-05T13:09:08.517Z,68.89
2022-10-05T13:11:57.689Z,69.04
2022-10-05T13:14:48.422Z,68.63
2022-10-05T13:17:25.601Z,69.41
2022-10-05T13:20:03.636Z,69.48
2022-10-05T13:22:55.221Z,69.21
2022-10-05T13:25:44.578Z,69.58
2022-10-05T13:28:19.549Z,69.80
2022-10-05T13:31:00.950Z,70.25
2022-10-05T13:33:32.098Z,69.61
2022-10-05T13:36:11.524Z,69.82
2022-10-05T13:39:03.657Z,69.68
2022-10-05T13:41:54.418Z,69.33
2022-10-05T13:44:34.052Z,68.77
2022-10-05T13:47:26.325Z,68.92
2022-10-05T13:50:28.512Z,68.83
2022-10-05T13:53:23.904Z,69.06
2022-10-05T13:55:58.193Z,69.17
2022-10-05T13:58:38.409Z,68.54
2022-10-05T14:01:28.132Z,69.33
2022-10-05T14:04:16.972Z,68.10
2022-10-05T14:06:44.381Z,67.63
2022-10-05T14:09:16.223Z,66.93
2022-10-05T14:12:09.231Z,66.41
2022-10-05T14:14:48.207Z,66.36
2022-10-05T14:17:17.493Z,66.43
2022-10-05T14:19:50.785Z,66.00
2022-10-05T14:22:22.870Z,65.06
2022-10-05T14:25:02.082Z,65.11
2022-10-05T14:27:32.705Z,65.15
2022-10-05T14:30:23.989Z,64.74
2022-10-05T14:33:05.585Z,65.07
2022-10-05T14:35:53.075Z,65.05
2022-10-05T14:38:29.313Z,65.52
2022-10-05T14:41:07.735Z,66.05
2022-10-05T14:43:35.278Z,65.54
2022-10-05T14:46:15.189Z,65.49
2022-10-05T14:48:43.440Z,65.39
2022-10-05T14:51:12.805Z,65.39
2022-10-05T14:53:56.596Z,64.13
2022-10-05T14:56:45.925Z,63.67
2022-10-05T14:59:35.375Z,63.42
2022-10-05T15:02:44.892Z,64.09
2022-10-05T15:05:24.687Z,62.95
2022-10-05T15:07:57.616Z,63.63
2022-10-05T15:10:41.650Z,63.20
2022-10-05T15:13:24.037Z,62.75
2022-10-05T15:15:54.561Z,63.64
2022-10-05T15:18:40.674Z,63.70
2022-10-05T15:21:28.110Z,64.29
2022-10-05T15:24:02.763Z,63.67
2022-10-05T15:26:51.662Z,64.66
2022-10-05T15:29:49.804Z,65.03
2022-10-05T15:32:57.238Z,65.51
2022-10-05T15:35:35.953Z,65.10
2022-10-05T15:38:11.741Z,65.06
2022-10-05T15:41:01.197Z,65.26
2022-10-05T15:43:42.067Z,65.36
2022-10-05T15:46:35.553Z,65.54
2022-10-05T15:49:24.430Z,65.82
2022-10-05T15:52:11.262Z,66.05
2022-10-05T15:54:53.373Z,65.78
2022-10-05T15:57:38.043Z,66.48
2022-10-05T16:00:11.956Z,66.01
2022-10-05T16:02:51.991Z,65.98
2022-10-05T16:05:58.715Z,65.87
2022-10-05T16:08:55.607Z,66.19
2022-10-05T16:11:58.954Z,66.46
2022-10-05T16:14:46.422Z,66.36
2022-10-05T16:17:40.899Z,66.46
2022-10-05T16:20:45.245Z,66.25
2022-10-05T16:23:28.273Z,66.27
2022-10-05T16:26:20.979Z,66.03
2022-10-05T16:29:05.197Z,66.20
2022-10-05T16:31:37.376Z,66.20
2022-10-05T16:34:23.197Z,66.60
2022-10-05T16:37:09.692Z,66.64
2022-10-05T16:39:38.845Z,66.46
2022-10-05T16:42:17.580Z,66.43
2022-10-05T16:44:57.610Z,66.61
2022-10-05T16:47:29.653Z,66.53
2022-10-05T16:50:06.464Z,67.17
2022-10-05T16:52:33.919Z,67.10
2022-10-05T16:55:12.050Z,67.26
2022-10-05T16:57:48.299Z,66.93
2022-10-05T17:00:16.130Z,67.46
2022-10-05T17:02:59.294Z,67.57
2022-10-05T17:06:10.518Z,67.28
2022-10-05T17:09:00.230Z,67.38
2022-10-05T17:11:45.657Z,67.29
2022-10-05T17:14:35.030Z,67.90
2022-10-05T17:17:20.613Z,68.33
2022-10-05T17:20:20.466Z,68.39
2022-10-05T17:22:59.499Z,67.88
2022-10-05T17:25:48.550Z,68.42
2022-10-05T17:28:33.509Z,68.51
2022-10-05T17:31:02.904Z,68.49
2022-10-05T17:33:34.448Z,68.42
2022-10-05T17:36:08.434Z,68.51
2022-10-05T17:38:34.812Z,69.03
2022-10-05T17:41:04.027Z,68.93
2022-10-05T17:43:31.846Z,69.11
2022-10-05T17:46:03.649Z,69.05
2022-10-05T17:48:37.424Z,69.58
2022-10-05T17:51:48.356Z,69.47
2022-10-05T17:54:39.640Z,69.67
2022-10-05T17:57:05.917Z,70.04
2022-10-05T17:59:48.431Z,69.87
2022-10-05T18:02:36.549Z,69.71
2022-10-05T18:05:04.118Z,70.44
2022-10-05T18:07:31.633Z,70.29
2022-10-05T18:10:22.697Z,70.05
2022-10-05T18:13:11.063Z,70.02
2022-10-05T18:15:45.011Z,70.19
2022-10-05T18:18:32.553Z,69.85
2022-10-05T18:21:15.235Z,70.53
2022-10-05T18:23:49.901Z,70.05
2022-10-05T18:26:37.782Z,70.10
2022-10-05T18:29:38.096Z,70.19
2022-10-05T18:32:25.132Z,70.57
2022-10-05T18:35:13.235Z,70.52
2022-10-05T18:37:54.779Z,70.64
2022-10-05T18:40:47.279Z,70.69
2022-10-05T18:43:31.913Z,70.84
2022-10-05T18:46:21.992Z,70.75
2022-10-05T18:49:09.446Z,70.76
2022-10-05T18:51:53.223Z,70.87
2022-10-05T18:54:41.959Z,70.89
2022-10-05T18:57:20.127Z,71.48
2022-10-05T19:00:06.597Z,71.60
2022-10-05T19:02:42.878Z,71.84
2022-10-05T19:05:47.653Z,71.51
2022-10-05T19:08:33.822Z,71.97
2022-10-05T19:11:06.257Z,72.98
2022-10-05T19:13:37.558Z,73.79
2022-10-05T19:16:22.509Z,73.55
2022-10-05T19:19:10.976Z,73.47
2022-10-05T19:21:59.004Z,74.41
2022-10-05T19:24:49.241Z,74.74
2022-10-05T19:27:42.122Z,74.78
2022-10-05T19:30:15.371Z,75.55
2022-10-05T19:32:41.715Z,76.31
2022-10-05T19:35:26.982Z,76.58
2022-10-05T19:38:48.928Z,77.50
2022-10-05T19:41:27.572Z,82.50
2022-10-05T19:44:29.115Z,83.31
2022-10-05T19:47:10.238Z,81.20
2022-10-05T19:49:49.051Z,82.45
2022-10-05T19:52:31.685Z,83.55
2022-10-05T19:55:05.725Z,83.27
2022-10-05T19:57:32.177Z,84.04
2022-10-05T19:59:59.120Z,84.13
2022-10-05T20:02:27.048Z,83.68
2022-10-05T20:04:55.048Z,84.59
2022-10-05T20:07:25.580Z,84.22
2022-10-05T20:09:53.617Z,84.95
2022-10-05T20:12:23.081Z,84.92
2022-10-05T20:15:25.031Z,85.21
2022-10-05T20:18:10.070Z,84.56
2022-10-05T20:20:47.071Z,84.29
2022-10-05T20:23:23.185Z,84.63
2022-10-05T20:26:10.437Z,84.89
2022-10-05T20:28:37.228Z,84.54
2022-10-05T20:31:06.530Z,84.56
2022-10-05T20:33:34.298Z,84.62
2022-10-05T20:36:03.516Z,84.53
2022-10-05T20:38:31.141Z,85.03
2022-10-05T20:40:57.779Z,85.01
2022-10-05T20:43:24.265Z,84.75
2022-10-05T20:45:53.608Z,84.55
2022-10-05T20:48:19.932Z,83.64
2022-10-05T20:50:47.199Z,85.03
2022-10-05T20:53:14.257Z,85.20
2022-10-05T20:55:40.723Z,84.61
2022-10-05T20:58:08.900Z,84.39
2022-10-05T21:00:53.693Z,83.96
2022-10-05T21:03:20.105Z,84.70
2022-10-05T21:05:47.145Z,84.79
2022-10-05T21:08:13.992Z,84.02
2022-10-05T21:10:40.723Z,84.85
2022-10-05T21:13:07.089Z,83.89
2022-10-05T21:15:33.483Z,81.94
2022-10-05T21:17:59.927Z,82.36
2022-10-05T21:20:26.297Z,81.71
2022-10-05T21:22:52.651Z,81.56
2022-10-05T21:25:19.153Z,81.66
2022-10-05T21:27:46.281Z,81.40
2022-10-05T21:30:13.017Z,80.69
2022-10-05T21:32:43.973Z,81.70
2022-10-05T21:35:11.022Z,82.04
2022-10-05T21:37:37.362Z,81.54
2022-10-05T21:40:03.971Z,81.75
2022-10-05T21:42:30.399Z,81.81
2022-10-05T21:44:56.858Z,81.33
2022-10-05T21:47:23.248Z,81.39
2022-10-05T21:49:49.695Z,82.10
2022-10-05T21:52:16.080Z,81.54
2022-10-05T21:54:42.692Z,81.37
2022-10-05T21:57:12.273Z,81.71
2022-10-05T21:59:39.916Z,81.81
2022-10-05T22:02:06.323Z,81.36
2022-10-05T22:07:18.357Z,82.26
2022-10-05T22:09:50.041Z,82.17
2022-10-05T22:12:18.146Z,81.88
2022-10-05T22:14:44.978Z,81.39
2022-10-05T22:17:20.537Z,82.18
2022-10-05T22:19:47.195Z,82.80
2022-10-05T22:22:13.652Z,82.77
2022-10-05T22:24:40.192Z,82.62
2022-10-05T22:27:06.933Z,82.02
2022-10-05T22:29:33.584Z,82.48
2022-10-05T22:31:59.982Z,82.65
2022-10-05T22:34:26.431Z,82.16
2022-10-05T22:36:56.046Z,82.61
2022-10-05T22:39:22.526Z,83.56
2022-10-05T22:41:49.002Z,83.49
2022-10-05T22:44:15.377Z,83.88
2022-10-05T22:46:41.904Z,82.97
2022-10-05T22:49:08.328Z,83.00
2022-10-05T22:51:34.929Z,83.54
2022-10-05T22:54:01.897Z,83.16
2022-10-05T22:56:28.734Z,83.61
2022-10-05T22:58:55.191Z,83.42
2022-10-05T23:01:21.769Z,83.38
2022-10-05T23:03:48.440Z,83.20
2022-10-05T23:06:17.963Z,83.61
2022-10-05T23:08:45.940Z,83.78
2022-10-05T23:11:22.509Z,83.67
2022-10-05T23:13:52.216Z,83.71
2022-10-05T23:16:21.498Z,83.10
2022-10-05T23:18:51.233Z,83.47
2022-10-05T23:21:19.466Z,83.70
2022-10-05T23:23:52.958Z,83.15
2022-10-05T23:26:24.610Z,83.08
2022-10-05T23:28:51.607Z,82.17
2022-10-05T23:31:24.003Z,82.23
2022-10-05T23:33:51.255Z,82.00
2022-10-05T23:36:23.742Z,82.49
2022-10-05T23:38:50.755Z,82.08
2022-10-05T23:41:18.237Z,81.96
2022-10-05T23:43:45.015Z,81.17
2022-10-05T23:46:13.058Z,82.08
2022-10-05T23:48:40.999Z,81.82
2022-10-05T23:51:10.162Z,80.59
2022-10-05T23:53:37.107Z,80.82
2022-10-05T23:56:04.500Z,80.54
2022-10-05T23:58:31.625Z,79.03
